Geja C — VSQG6 — position and weather

sailwx.info

Track history (hours):
 
Tides and Currents Weather Stations Pressure Air Temp Water Temp Dewpoint Dewpoint Depression Visibility Wind Speed Wind Dir Waves Ship Positions

Geja C

Last reported at 2014-Nov-01 04:34 UTC. Time now 2014-Nov-01 05:19 UTC.
Position N 51°18' E 002°07'.

Length 142 m; draft 5.8 m.

Type: Ship (hazmat cat A). MMSI: 235006360.

Date/timePositionNaut miles runAvg speedWind from/ knotsBaromVisibWave heightAir tempDewpointWater temp
2014-Nov-01 04:34N 51°18' E 002°07'1312.8
2014-Nov-01 03:33N 51°09' E 001°52'1212.5
2014-Nov-01 02:33N 51°01' E 001°38'1212.0
2014-Nov-01 01:33N 50°51' E 001°27'1212.1
2014-Nov-01 00:33N 50°40' E 001°20'1212.5
2014-Oct-31 23:33N 50°31' E 001°05'1212.1
2014-Oct-31 22:33N 50°27' E 000°47'1212.3
2014-Oct-31 21:32N 50°24' E 000°28'1512.0
2014-Oct-31 20:17N 50°20' E 000°06'912.1
2014-Oct-31 19:30N 50°18' W 000°09'1211.8
2014-Oct-31 18:31N 50°16' W 000°27'1312.0
2014-Oct-31 17:28N 50°12' W 000°46'4413.9
2014-Oct-31 14:18N 49°60' W 001°51'1215.5
2014-Oct-31 13:33N 49°57' W 002°09'1515.1
2014-Oct-31 12:32N 49°53' W 002°32'1414.3
2014-Oct-31 11:33N 49°50' W 002°53'1414.2
2014-Oct-31 10:33N 49°42' W 003°12'1413.9
2014-Oct-31 09:32N 49°35' W 003°31'1713.7
2014-Oct-31 08:18N 49°26' W 003°53'1213.6
2014-Oct-31 07:25N 49°20' W 004°09'1413.3
2014-Oct-31 06:22N 49°13' W 004°27'  
2014-Oct-28 00:07N 33°49' W 013°40'  
2014-Oct-25 14:29N 24°16' W 016°58'  
Track history (hours):
 
Tides and Currents Weather Stations Pressure Air Temp Water Temp Dewpoint Dewpoint Depression Visibility Wind Speed Wind Dir Waves Ship Positions

Geja C

Last reported at 2014-Nov-01 04:34 UTC. Time now 2014-Nov-01 05:19 UTC.
Position N 51°18' E 002°07'.

Length 142 m; draft 5.8 m.

Type: Ship (hazmat cat A). MMSI: 235006360.

Date/timePositionNaut miles runAvg speedWind from/ knotsBaromVisibWave heightAir tempDewpointWater temp
2014-Nov-01 04:34N 51°18' E 002°07'1312.8
2014-Nov-01 03:33N 51°09' E 001°52'1212.5
2014-Nov-01 02:33N 51°01' E 001°38'1212.0
2014-Nov-01 01:33N 50°51' E 001°27'1212.1
2014-Nov-01 00:33N 50°40' E 001°20'1212.5
2014-Oct-31 23:33N 50°31' E 001°05'1212.1
2014-Oct-31 22:33N 50°27' E 000°47'1212.3
2014-Oct-31 21:32N 50°24' E 000°28'1512.0
2014-Oct-31 20:17N 50°20' E 000°06'912.1
2014-Oct-31 19:30N 50°18' W 000°09'1211.8
2014-Oct-31 18:31N 50°16' W 000°27'1312.0
2014-Oct-31 17:28N 50°12' W 000°46'4413.9
2014-Oct-31 14:18N 49°60' W 001°51'1215.5
2014-Oct-31 13:33N 49°57' W 002°09'1515.1
2014-Oct-31 12:32N 49°53' W 002°32'1414.3
2014-Oct-31 11:33N 49°50' W 002°53'1414.2
2014-Oct-31 10:33N 49°42' W 003°12'1413.9
2014-Oct-31 09:32N 49°35' W 003°31'1713.7
2014-Oct-31 08:18N 49°26' W 003°53'1213.6
2014-Oct-31 07:25N 49°20' W 004°09'1413.3
2014-Oct-31 06:22N 49°13' W 004°27'  
2014-Oct-28 00:07N 33°49' W 013°40'  
2014-Oct-25 14:29N 24°16' W 016°58'  

Dump ship's entire track history